createdAt,value
2023-01-11T00:09:58.672Z,110.27
2023-01-11T00:20:02.291Z,106.47
2023-01-11T00:30:08.877Z,107.37
2023-01-11T00:40:13.438Z,106.77
2023-01-11T00:50:18.730Z,111.00
2023-01-11T01:00:23.409Z,112.00
2023-01-11T01:10:28.229Z,112.23
2023-01-11T01:20:31.713Z,111.87
2023-01-11T01:30:36.531Z,113.30
2023-01-11T01:40:43.168Z,108.30
2023-01-11T01:50:52.576Z,110.57
2023-01-11T02:00:56.173Z,112.40
2023-01-11T02:11:01.701Z,117.10
2023-01-11T02:21:23.093Z,118.43
2023-01-11T02:31:36.057Z,119.03
2023-01-11T02:42:05.377Z,120.13
2023-01-11T02:52:13.906Z,119.83
2023-01-11T03:02:18.131Z,119.87
2023-01-11T03:12:54.994Z,119.43
2023-01-11T03:23:13.250Z,121.70
2023-01-11T03:33:26.546Z,116.60
2023-01-11T03:43:33.256Z,116.67
2023-01-11T03:53:40.287Z,118.40
2023-01-11T04:03:43.807Z,116.73
2023-01-11T04:13:48.637Z,115.37
2023-01-11T04:23:52.162Z,112.20
2023-01-11T04:33:56.983Z,115.90
2023-01-11T04:44:00.446Z,110.70
2023-01-11T04:54:05.786Z,115.30
2023-01-11T05:04:09.316Z,116.40
2023-01-11T05:14:14.963Z,117.27
2023-01-11T05:24:18.851Z,114.90
2023-01-11T05:34:23.732Z,112.83
2023-01-11T05:44:44.906Z,123.87
2023-01-11T05:54:49.930Z,114.97
2023-01-11T06:04:55.420Z,115.30
2023-01-11T06:15:00.638Z,112.83
2023-01-11T06:25:04.112Z,112.13
2023-01-11T06:35:10.734Z,110.87
2023-01-11T06:45:14.205Z,104.07
2023-01-11T06:55:19.029Z,109.50
2023-01-11T07:05:22.681Z,109.13
2023-01-11T07:15:27.543Z,114.63
2023-01-11T07:25:32.056Z,127.53
2023-01-11T07:35:36.955Z,125.50
2023-01-11T07:45:46.929Z,115.00
2023-01-11T07:55:52.033Z,115.03
2023-01-11T08:05:55.484Z,118.63
2023-01-11T08:16:01.144Z,116.60
2023-01-11T08:26:04.774Z,113.03
2023-01-11T08:36:12.375Z,112.70
2023-01-11T08:46:15.975Z,115.00
2023-01-11T08:56:20.863Z,113.57
2023-01-11T09:06:24.351Z,120.17
2023-01-11T09:16:29.260Z,118.53
2023-01-11T09:26:32.764Z,115.57
2023-01-11T09:36:40.064Z,122.53
2023-01-11T09:46:48.408Z,124.07
2023-01-11T09:57:16.005Z,115.50
2023-01-11T10:19:04.608Z,126.80
2023-01-11T10:29:30.175Z,119.43
2023-01-11T10:40:06.352Z,117.37
2023-01-11T10:50:20.901Z,120.70
2023-01-11T11:00:36.634Z,120.83
2023-01-11T11:10:48.017Z,121.07
2023-01-11T11:20:54.091Z,111.13
2023-01-11T11:31:00.011Z,109.50
2023-01-11T11:41:09.925Z,112.93
2023-01-11T11:51:21.318Z,110.70
2023-01-11T12:01:30.333Z,114.57
2023-01-11T12:11:38.754Z,117.33
2023-01-11T12:21:43.724Z,117.90
2023-01-11T12:32:06.158Z,120.03
2023-01-11T12:42:37.926Z,118.27
2023-01-11T12:52:55.664Z,117.87
2023-01-11T13:03:21.143Z,117.47
2023-01-11T13:13:32.951Z,114.97
2023-01-11T13:23:45.823Z,114.53
2023-01-11T13:33:55.190Z,114.93
2023-01-11T13:44:05.891Z,109.60
2023-01-11T13:54:15.308Z,108.63
2023-01-11T14:04:26.692Z,103.37
2023-01-11T14:15:08.848Z,98.37
2023-01-11T14:25:22.210Z,102.77
2023-01-11T14:35:52.683Z,97.10
2023-01-11T14:46:43.620Z,96.27
2023-01-11T14:56:56.576Z,93.57
2023-01-11T15:07:02.346Z,94.23
2023-01-11T15:17:23.282Z,104.97
2023-01-11T15:27:33.583Z,91.70
2023-01-11T15:37:49.447Z,90.70
2023-01-11T15:48:25.312Z,103.33
2023-01-11T15:59:14.397Z,114.20
2023-01-11T16:09:49.915Z,111.93
2023-01-11T16:19:57.068Z,98.73
2023-01-11T16:30:03.242Z,106.23
2023-01-11T16:40:15.158Z,101.07
2023-01-11T16:50:25.963Z,107.50
2023-01-11T17:00:36.097Z,107.47
2023-01-11T17:10:44.088Z,121.97
2023-01-11T17:20:54.683Z,132.67
2023-01-11T17:31:01.161Z,126.67
2023-01-11T17:41:26.255Z,129.53
2023-01-11T17:51:34.347Z,113.60
2023-01-11T18:01:38.407Z,119.33
2023-01-11T18:11:43.907Z,127.03
2023-01-11T18:21:54.512Z,120.90
2023-01-11T18:31:59.427Z,106.53
2023-01-11T18:42:11.030Z,107.07
2023-01-11T18:52:16.689Z,113.17
2023-01-11T19:02:27.132Z,112.30
2023-01-11T19:12:32.359Z,129.67
2023-01-11T19:22:36.208Z,124.53
2023-01-11T19:32:41.170Z,126.57
2023-01-11T19:42:47.298Z,123.53
2023-01-11T19:52:53.232Z,130.70
2023-01-11T20:02:57.220Z,111.07
2023-01-11T20:13:02.239Z,115.63
2023-01-11T20:23:05.705Z,108.73
2023-01-11T20:33:10.834Z,119.87
2023-01-11T20:43:14.401Z,120.10
2023-01-11T20:53:19.435Z,116.70
2023-01-11T21:03:26.189Z,117.80
2023-01-11T21:13:31.052Z,112.70
2023-01-11T21:23:37.194Z,108.83
2023-01-11T21:33:42.095Z,110.50
2023-01-11T21:43:46.413Z,111.00
2023-01-11T21:53:51.363Z,121.77
2023-01-11T22:03:55.051Z,115.97
2023-01-11T22:14:00.130Z,116.27
2023-01-11T22:24:04.824Z,124.00
2023-01-11T22:34:10.068Z,124.97
2023-01-11T22:44:13.766Z,118.20
2023-01-11T22:54:18.898Z,120.13
2023-01-11T23:04:22.554Z,125.57
2023-01-11T23:14:30.742Z,128.43
2023-01-11T23:24:34.681Z,125.17
2023-01-11T23:34:39.505Z,126.43
2023-01-11T23:44:42.933Z,133.70
2023-01-11T23:54:48.097Z,131.83
